Time;durP1;ratioP1;P1;durP2;ratioP2;P2;SDS_P1;SDS_P2;PMS_P1;PMS_P2;Temp;Humidity;BMP_temperature;BMP_pressure;BME280_temperature;BME280_humidity;BME280_pressure;Samples;Min_cycle;Max_cycle;Signal;HPM_P1;HPM_P2
2021/06/17 00:00:08;;;;;;;3.28;2.97;;;;;;;;;;5055447;28;20237;-47
2021/06/17 00:02:34;;;;;;;3.92;3.03;;;;;;;;;;5055986;28;20258;-47
2021/06/17 00:05:00;;;;;;;6.40;3.55;;;;;;;;;;5055846;28;20221;-47
2021/06/17 00:07:26;;;;;;;3.50;3.15;;;;;;;;;;5054834;28;20201;-47
2021/06/17 00:09:52;;;;;;;4.40;3.30;;;;;;;;;;5055527;28;20510;-47
2021/06/17 00:12:18;;;;;;;3.33;3.03;;;;;;;;;;5047611;28;20210;-47
2021/06/17 00:14:44;;;;;;;3.65;3.35;;;;;;;;;;5054058;28;20570;-47
2021/06/17 00:17:10;;;;;;;4.25;3.83;;;;;;;;;;5048169;28;20182;-46
2021/06/17 00:19:36;;;;;;;3.90;3.45;;;;;;;;;;5054883;28;20424;-47
2021/06/17 00:22:04;;;;;;;4.15;3.65;;;;;;;;;;5055298;28;20546;-47
2021/06/17 00:24:30;;;;;;;3.53;3.22;;;;;;;;;;5055489;28;20687;-47
2021/06/17 00:26:56;;;;;;;3.50;3.20;;;;;;;;;;5055085;28;20236;-47
2021/06/17 00:29:22;;;;;;;3.80;3.45;;;;;;;;;;5054747;28;20464;-47
2021/06/17 00:31:48;;;;;;;4.93;3.33;;;;;;;;;;5055208;28;20282;-47
2021/06/17 00:34:14;;;;;;;3.65;2.90;;;;;;;;;;5055099;28;20187;-46
2021/06/17 00:36:40;;;;;;;4.05;3.38;;;;;;;;;;5054803;28;20181;-47
2021/06/17 00:39:09;;;;;;;3.90;3.50;;;;;;;;;;5054965;28;20559;-47
2021/06/17 00:41:35;;;;;;;3.55;3.03;;;;;;;;;;5054641;28;20282;-47
2021/06/17 00:44:02;;;;;;;5.80;3.78;;;;;;;;;;5054847;28;20179;-47
2021/06/17 00:46:27;;;;;;;4.95;3.60;;;;;;;;;;5054153;28;20191;-46
2021/06/17 00:48:54;;;;;;;3.78;3.17;;;;;;;;;;5054501;28;20185;-47
2021/06/17 00:51:20;;;;;;;3.50;3.20;;;;;;;;;;5054850;28;20225;-47
2021/06/17 00:53:46;;;;;;;4.72;3.20;;;;;;;;;;5054857;28;20210;-46
2021/06/17 00:56:12;;;;;;;5.43;3.28;;;;;;;;;;5054598;28;20657;-47
2021/06/17 00:58:38;;;;;;;4.68;2.97;;;;;;;;;;5054207;28;20207;-47
2021/06/17 01:01:04;;;;;;;4.30;3.60;;;;;;;;;;5054837;28;20207;-47
2021/06/17 01:03:30;;;;;;;4.10;3.70;;;;;;;;;;5054540;28;20577;-47
2021/06/17 01:05:56;;;;;;;4.20;3.50;;;;;;;;;;5054159;28;20172;-46
2021/06/17 01:08:25;;;;;;;3.67;3.38;;;;;;;;;;5054480;28;20258;-47
2021/06/17 01:11:10;;;;;;;4.88;3.45;;;;;;;;;;5054581;28;20172;-47
2021/06/17 01:13:36;;;;;;;4.57;3.40;;;;;;;;;;5054118;28;20265;-47
2021/06/17 01:16:11;;;;;;;5.22;3.30;;;;;;;;;;5053767;28;20262;-47
2021/06/17 01:18:40;;;;;;;3.88;3.35;;;;;;;;;;5053934;28;20182;-47
2021/06/17 01:21:11;;;;;;;3.63;3.33;;;;;;;;;;5054380;28;20203;-47
2021/06/17 01:23:49;;;;;;;6.93;3.70;;;;;;;;;;5054635;28;20198;-47
2021/06/17 01:26:21;;;;;;;3.35;3.05;;;;;;;;;;5053760;28;20198;-46
2021/06/17 01:28:49;;;;;;;3.22;2.92;;;;;;;;;;5053550;28;20171;-46
2021/06/17 01:31:17;;;;;;;4.57;3.22;;;;;;;;;;5054379;28;20199;-46
2021/06/17 01:33:44;;;;;;;3.60;3.20;;;;;;;;;;5054565;28;20250;-47
2021/06/17 01:36:15;;;;;;;4.38;3.45;;;;;;;;;;5053512;28;20237;-47
2021/06/17 01:38:41;;;;;;;3.50;3.10;;;;;;;;;;5049632;28;20187;-47
2021/06/17 01:41:08;;;;;;;4.85;3.28;;;;;;;;;;5053934;28;20202;-47
2021/06/17 01:43:34;;;;;;;3.83;3.45;;;;;;;;;;5053728;28;20558;-47
2021/06/17 01:46:02;;;;;;;3.30;3.00;;;;;;;;;;5054115;28;20508;-46
2021/06/17 01:48:28;;;;;;;5.28;3.35;;;;;;;;;;5054136;28;20190;-46
2021/06/17 01:50:56;;;;;;;2.95;2.75;;;;;;;;;;5053773;28;20202;-46
2021/06/17 01:53:22;;;;;;;4.47;3.28;;;;;;;;;;5053885;28;20182;-47
2021/06/17 01:55:49;;;;;;;3.58;3.28;;;;;;;;;;5053416;28;20259;-46
2021/06/17 01:58:16;;;;;;;3.40;3.10;;;;;;;;;;5054790;28;20488;-47
2021/06/17 02:00:43;;;;;;;3.92;3.20;;;;;;;;;;5058160;28;20698;-46
2021/06/17 02:03:09;;;;;;;3.35;2.67;;;;;;;;;;5057729;28;20310;-46
2021/06/17 02:05:36;;;;;;;3.47;3.17;;;;;;;;;;5057925;28;20178;-47
2021/06/17 02:08:04;;;;;;;3.28;3.05;;;;;;;;;;5057114;28;20213;-47
2021/06/17 02:10:30;;;;;;;3.83;3.10;;;;;;;;;;5056234;28;20186;-47
2021/06/17 02:12:56;;;;;;;3.25;2.95;;;;;;;;;;5055339;28;20187;-47
2021/06/17 02:15:24;;;;;;;3.47;3.17;;;;;;;;;;5057995;28;20262;-47
2021/06/17 02:17:51;;;;;;;3.35;3.05;;;;;;;;;;5056844;28;20262;-46
2021/06/17 02:20:19;;;;;;;3.10;2.90;;;;;;;;;;5057907;28;20199;-46
2021/06/17 02:22:45;;;;;;;4.07;3.05;;;;;;;;;;5057712;28;20164;-46
2021/06/17 02:25:15;;;;;;;4.85;3.13;;;;;;;;;;5057854;28;20172;-46
2021/06/17 02:27:43;;;;;;;5.13;3.47;;;;;;;;;;5056661;28;20183;-46
2021/06/17 02:30:10;;;;;;;4.18;3.08;;;;;;;;;;5057490;28;20179;-46
2021/06/17 02:32:39;;;;;;;4.03;3.08;;;;;;;;;;5057256;28;20207;-47
2021/06/17 02:35:05;;;;;;;3.95;3.20;;;;;;;;;;5057296;28;20189;-47
2021/06/17 02:37:33;;;;;;;3.88;3.13;;;;;;;;;;5056873;28;20219;-46
2021/06/17 02:39:59;;;;;;;4.38;3.10;;;;;;;;;;5057365;28;20218;-47
2021/06/17 02:42:26;;;;;;;4.28;3.30;;;;;;;;;;5057619;28;20213;-46
2021/06/17 02:44:52;;;;;;;3.03;2.83;;;;;;;;;;5055282;28;20175;-46
2021/06/17 02:47:18;;;;;;;3.25;2.95;;;;;;;;;;5054578;28;20179;-47
2021/06/17 02:49:45;;;;;;;3.22;2.88;;;;;;;;;;5057262;28;20163;-46
2021/06/17 02:52:11;;;;;;;3.63;3.17;;;;;;;;;;5056170;28;20191;-46
2021/06/17 02:54:37;;;;;;;4.32;3.03;;;;;;;;;;5056230;28;20179;-46
2021/06/17 02:57:03;;;;;;;3.40;2.75;;;;;;;;;;5055588;28;20194;-47
2021/06/17 02:59:55;;;;;;;3.97;2.95;;;;;;;;;;5055741;28;20232;-46
2021/06/17 03:02:35;;;;;;;5.63;3.33;;;;;;;;;;5053167;28;20222;-46
2021/06/17 03:05:18;;;;;;;3.53;3.20;;;;;;;;;;5056091;28;20171;-46
2021/06/17 03:07:50;;;;;;;4.45;2.85;;;;;;;;;;5054807;28;20182;-46
2021/06/17 03:10:16;;;;;;;5.57;3.15;;;;;;;;;;5055441;28;20250;-46
2021/06/17 03:12:43;;;;;;;3.00;2.80;;;;;;;;;;5036361;28;20188;-47
2021/06/17 03:15:11;;;;;;;3.20;2.90;;;;;;;;;;5055047;28;20191;-47
2021/06/17 03:17:39;;;;;;;6.60;3.50;;;;;;;;;;5054939;28;20187;-46
2021/06/17 03:20:07;;;;;;;4.07;2.78;;;;;;;;;;5055594;28;20537;-47
2021/06/17 03:22:33;;;;;;;3.67;2.70;;;;;;;;;;5055674;28;20172;-46
2021/06/17 03:25:02;;;;;;;4.88;3.10;;;;;;;;;;5055456;28;20487;-46
2021/06/17 03:27:29;;;;;;;2.97;2.78;;;;;;;;;;5054388;28;20175;-47
2021/06/17 03:29:55;;;;;;;4.35;2.95;;;;;;;;;;5052768;28;20183;-46
2021/06/17 03:32:21;;;;;;;4.07;3.38;;;;;;;;;;5044004;28;20294;-47
2021/06/17 03:34:49;;;;;;;3.28;2.83;;;;;;;;;;5055433;28;20217;-47
2021/06/17 03:37:16;;;;;;;4.15;3.05;;;;;;;;;;5054807;28;20254;-46
2021/06/17 03:39:44;;;;;;;2.80;2.60;;;;;;;;;;5055056;28;20274;-46
2021/06/17 03:42:10;;;;;;;3.08;2.78;;;;;;;;;;5054452;28;20191;-46
2021/06/17 03:44:37;;;;;;;4.35;3.20;;;;;;;;;;5054593;28;20194;-46
2021/06/17 03:47:03;;;;;;;3.15;2.88;;;;;;;;;;5054675;28;20179;-46
2021/06/17 03:49:30;;;;;;;3.67;2.95;;;;;;;;;;5055070;28;20194;-46
2021/06/17 03:51:57;;;;;;;3.90;2.90;;;;;;;;;;5052697;28;86720;-47
2021/06/17 03:54:24;;;;;;;3.45;3.10;;;;;;;;;;5055795;28;20168;-47
2021/06/17 03:57:01;;;;;;;3.55;3.05;;;;;;;;;;5055283;28;20182;-46
2021/06/17 03:59:28;;;;;;;4.28;3.10;;;;;;;;;;5055221;28;20175;-46
2021/06/17 04:01:55;;;;;;;3.90;3.05;;;;;;;;;;5055727;28;20220;-47
2021/06/17 04:04:21;;;;;;;3.63;3.33;;;;;;;;;;5056028;28;20545;-46
2021/06/17 04:06:55;;;;;;;3.10;2.80;;;;;;;;;;5054950;28;20187;-46
2021/06/17 04:09:26;;;;;;;3.25;2.95;;;;;;;;;;5035972;28;20164;-46
2021/06/17 04:11:54;;;;;;;4.28;3.28;;;;;;;;;;5049739;28;20313;-46
2021/06/17 04:14:20;;;;;;;5.55;3.05;;;;;;;;;;5055027;28;20262;-46
2021/06/17 04:16:47;;;;;;;4.63;3.20;;;;;;;;;;5052712;28;20182;-46
2021/06/17 04:19:14;;;;;;;7.10;3.92;;;;;;;;;;5055343;28;20459;-46
2021/06/17 04:21:41;;;;;;;5.18;3.33;;;;;;;;;;5054353;28;20211;-46
2021/06/17 04:24:08;;;;;;;4.50;3.70;;;;;;;;;;5055606;28;20561;-46
2021/06/17 04:26:35;;;;;;;3.75;3.03;;;;;;;;;;5054664;28;20182;-46
2021/06/17 04:29:02;;;;;;;5.28;3.80;;;;;;;;;;5054192;28;20203;-46
2021/06/17 04:31:28;;;;;;;5.78;3.67;;;;;;;;;;5054533;28;20225;-46
2021/06/17 04:33:54;;;;;;;4.50;3.47;;;;;;;;;;5052990;28;20186;-46
2021/06/17 04:36:20;;;;;;;6.78;3.50;;;;;;;;;;5045826;28;20439;-46
2021/06/17 04:38:47;;;;;;;4.15;3.38;;;;;;;;;;5055030;28;20182;-46
2021/06/17 04:41:17;;;;;;;4.90;3.63;;;;;;;;;;5054953;28;20772;-47
2021/06/17 04:43:43;;;;;;;6.38;3.45;;;;;;;;;;5054146;28;20577;-46
2021/06/17 04:46:09;;;;;;;4.90;3.20;;;;;;;;;;5054166;28;20183;-47
2021/06/17 04:48:37;;;;;;;4.10;3.28;;;;;;;;;;5054665;28;20186;-46
2021/06/17 04:51:04;;;;;;;5.15;3.58;;;;;;;;;;5054691;28;20199;-46
2021/06/17 04:53:31;;;;;;;5.10;3.20;;;;;;;;;;5054387;28;20241;-46
2021/06/17 04:55:57;;;;;;;6.35;3.58;;;;;;;;;;5053836;28;20278;-46
2021/06/17 04:58:24;;;;;;;4.00;3.08;;;;;;;;;;5053238;28;20269;-47
2021/06/17 05:00:50;;;;;;;5.45;3.05;;;;;;;;;;5054354;28;20191;-47
2021/06/17 05:03:16;;;;;;;5.82;3.28;;;;;;;;;;5053869;28;20250;-47
2021/06/17 05:05:42;;;;;;;4.35;3.33;;;;;;;;;;5053343;28;20171;-46
2021/06/17 05:10:59;;;;;;;3.75;3.38;;;;;;;;;;5029789;28;20183;-46
2021/06/17 05:13:29;;;;;;;3.97;3.42;;;;;;;;;;5054333;28;20167;-46
2021/06/17 05:15:56;;;;;;;5.65;2.92;;;;;;;;;;5051851;28;20183;-47
2021/06/17 05:18:23;;;;;;;3.92;3.20;;;;;;;;;;5054266;28;20175;-47
2021/06/17 05:20:49;;;;;;;3.92;2.85;;;;;;;;;;5054353;28;20767;-47
2021/06/17 05:23:18;;;;;;;5.70;3.45;;;;;;;;;;5054284;28;20409;-46
2021/06/17 05:25:45;;;;;;;4.80;3.20;;;;;;;;;;5050987;28;20550;-46
2021/06/17 05:28:14;;;;;;;4.35;3.20;;;;;;;;;;5052611;28;20191;-46
2021/06/17 05:30:44;;;;;;;5.88;3.47;;;;;;;;;;5046022;28;20182;-46
2021/06/17 05:33:10;;;;;;;4.00;3.30;;;;;;;;;;5034398;28;20461;-47
2021/06/17 05:35:37;;;;;;;4.18;3.33;;;;;;;;;;5050519;28;20577;-46
2021/06/17 05:38:03;;;;;;;6.85;3.55;;;;;;;;;;5052484;28;20490;-46
2021/06/17 05:40:29;;;;;;;3.83;3.10;;;;;;;;;;5053710;28;20206;-46
2021/06/17 05:42:56;;;;;;;7.30;3.60;;;;;;;;;;5053695;28;20179;-46
2021/06/17 05:45:22;;;;;;;4.10;3.15;;;;;;;;;;5053936;28;20236;-47
2021/06/17 05:47:48;;;;;;;4.95;3.70;;;;;;;;;;5053382;28;20167;-46
2021/06/17 05:50:14;;;;;;;5.35;3.40;;;;;;;;;;5054201;28;20186;-46
2021/06/17 05:52:40;;;;;;;4.22;3.10;;;;;;;;;;5053725;28;20250;-46
2021/06/17 05:55:06;;;;;;;4.28;3.40;;;;;;;;;;5054069;28;20190;-46
2021/06/17 05:57:32;;;;;;;3.22;2.92;;;;;;;;;;5053105;28;20376;-46
2021/06/17 05:59:58;;;;;;;4.65;3.20;;;;;;;;;;5053177;28;20540;-46
2021/06/17 06:02:24;;;;;;;3.78;3.30;;;;;;;;;;5054203;28;20175;-46
2021/06/17 06:04:51;;;;;;;5.10;2.97;;;;;;;;;;5053501;28;20182;-46
2021/06/17 06:07:17;;;;;;;5.25;3.28;;;;;;;;;;5052984;28;20400;-46
2021/06/17 06:09:43;;;;;;;5.82;3.60;;;;;;;;;;5053644;28;20304;-47
2021/06/17 06:12:10;;;;;;;5.50;3.30;;;;;;;;;;5038367;28;20258;-47
2021/06/17 06:14:37;;;;;;;5.35;3.28;;;;;;;;;;5051647;28;20182;-47
2021/06/17 06:17:03;;;;;;;5.50;3.25;;;;;;;;;;5053630;28;20182;-46
2021/06/17 06:19:30;;;;;;;4.85;3.22;;;;;;;;;;5053849;28;20175;-47
2021/06/17 06:21:57;;;;;;;2.63;2.40;;;;;;;;;;5053711;28;20281;-47
2021/06/17 06:24:23;;;;;;;5.65;2.80;;;;;;;;;;5053459;28;20884;-47
2021/06/17 06:26:49;;;;;;;4.63;2.45;;;;;;;;;;5053411;28;20171;-46
2021/06/17 06:29:15;;;;;;;4.35;2.60;;;;;;;;;;5053305;28;20207;-46
2021/06/17 06:31:41;;;;;;;4.20;2.50;;;;;;;;;;5053956;28;20233;-47
2021/06/17 06:34:07;;;;;;;3.65;2.28;;;;;;;;;;5053049;28;20222;-46
2021/06/17 06:36:33;;;;;;;4.60;2.60;;;;;;;;;;5053332;28;20543;-46
2021/06/17 06:38:59;;;;;;;6.30;2.42;;;;;;;;;;5053274;28;20542;-46
2021/06/17 06:41:25;;;;;;;6.15;2.63;;;;;;;;;;5051305;28;20209;-46
2021/06/17 06:43:51;;;;;;;4.32;2.80;;;;;;;;;;5053684;28;20164;-47
2021/06/17 06:46:17;;;;;;;3.28;2.47;;;;;;;;;;5055881;28;20170;-47
2021/06/17 06:48:43;;;;;;;4.35;2.80;;;;;;;;;;5056900;28;20839;-47
2021/06/17 06:51:09;;;;;;;4.53;2.67;;;;;;;;;;5057060;28;20202;-46
2021/06/17 06:53:35;;;;;;;2.65;2.42;;;;;;;;;;5056847;28;20175;-46
2021/06/17 06:56:01;;;;;;;3.20;2.42;;;;;;;;;;5056678;28;20167;-46
2021/06/17 06:58:27;;;;;;;4.75;2.60;;;;;;;;;;5056979;28;20513;-46
2021/06/17 07:00:54;;;;;;;3.28;2.53;;;;;;;;;;5057015;28;20273;-47
2021/06/17 07:03:20;;;;;;;2.90;2.60;;;;;;;;;;5057069;28;20421;-46
2021/06/17 07:05:46;;;;;;;5.70;2.33;;;;;;;;;;5056427;28;20163;-46
2021/06/17 07:08:14;;;;;;;4.13;2.20;;;;;;;;;;5056538;28;20163;-46
2021/06/17 07:10:42;;;;;;;4.68;2.90;;;;;;;;;;5056814;28;20254;-46
2021/06/17 07:13:08;;;;;;;4.15;3.03;;;;;;;;;;5056911;28;20174;-47
2021/06/17 07:15:34;;;;;;;5.13;2.80;;;;;;;;;;5056727;28;20241;-46
2021/06/17 07:18:00;;;;;;;3.67;2.38;;;;;;;;;;5056183;28;20179;-47
2021/06/17 07:20:27;;;;;;;2.90;2.42;;;;;;;;;;5055509;28;20221;-47
2021/06/17 07:22:55;;;;;;;3.70;2.75;;;;;;;;;;5055560;28;20179;-46
2021/06/17 07:25:22;;;;;;;4.78;2.63;;;;;;;;;;5056392;28;20210;-46
2021/06/17 07:27:48;;;;;;;6.00;2.65;;;;;;;;;;5040643;28;20238;-46
2021/06/17 07:30:14;;;;;;;5.35;2.40;;;;;;;;;;5035847;28;20234;-46
2021/06/17 07:32:41;;;;;;;4.57;2.75;;;;;;;;;;5036277;28;20183;-46
2021/06/17 07:35:07;;;;;;;4.57;2.65;;;;;;;;;;5036430;28;20172;-47
2021/06/17 07:37:33;;;;;;;3.35;2.38;;;;;;;;;;5035855;28;20188;-47
2021/06/17 07:39:59;;;;;;;5.03;2.65;;;;;;;;;;5036165;28;20168;-46
2021/06/17 07:42:25;;;;;;;4.10;2.45;;;;;;;;;;5036329;28;20163;-46
2021/06/17 07:44:51;;;;;;;5.90;3.13;;;;;;;;;;5036511;28;20168;-47
2021/06/17 07:47:17;;;;;;;4.85;2.70;;;;;;;;;;5035684;28;20172;-46
2021/06/17 07:49:43;;;;;;;3.53;2.35;;;;;;;;;;5036116;28;20172;-47
2021/06/17 07:52:10;;;;;;;3.22;2.60;;;;;;;;;;5036139;28;20302;-46
2021/06/17 07:54:36;;;;;;;4.40;2.30;;;;;;;;;;5036050;28;20191;-46
2021/06/17 07:57:02;;;;;;;3.10;2.72;;;;;;;;;;5034555;28;20172;-46
2021/06/17 07:59:28;;;;;;;2.78;2.53;;;;;;;;;;5035940;28;20182;-47
2021/06/17 08:01:55;;;;;;;6.22;3.15;;;;;;;;;;5035807;28;20253;-46
2021/06/17 08:04:21;;;;;;;3.00;2.60;;;;;;;;;;5035480;28;20172;-46
2021/06/17 08:06:47;;;;;;;3.40;2.50;;;;;;;;;;5035350;28;20471;-46
2021/06/17 08:09:19;;;;;;;3.45;2.33;;;;;;;;;;5035479;28;20168;-47
2021/06/17 08:11:46;;;;;;;3.20;2.50;;;;;;;;;;5047608;28;20233;-46
2021/06/17 08:14:12;;;;;;;3.35;2.45;;;;;;;;;;5055730;28;20182;-46
2021/06/17 08:16:38;;;;;;;3.00;2.50;;;;;;;;;;5054957;28;20182;-46
2021/06/17 08:19:04;;;;;;;2.42;2.22;;;;;;;;;;5055134;28;20175;-47
2021/06/17 08:21:31;;;;;;;4.68;2.60;;;;;;;;;;5055318;28;20207;-46
2021/06/17 08:23:57;;;;;;;3.65;2.60;;;;;;;;;;5055565;28;20534;-46
2021/06/17 08:26:23;;;;;;;2.90;2.45;;;;;;;;;;5054935;28;20178;-46
2021/06/17 08:28:49;;;;;;;3.85;2.58;;;;;;;;;;5055479;28;20569;-46
2021/06/17 08:31:15;;;;;;;3.50;2.50;;;;;;;;;;5055199;28;20171;-46
2021/06/17 08:33:41;;;;;;;3.63;2.50;;;;;;;;;;5055443;28;20479;-46
2021/06/17 08:36:08;;;;;;;2.90;2.30;;;;;;;;;;5054744;28;20182;-46
2021/06/17 08:38:36;;;;;;;4.15;2.47;;;;;;;;;;5054497;28;20554;-46
2021/06/17 08:41:02;;;;;;;4.60;2.40;;;;;;;;;;5053190;28;20597;-46
2021/06/17 08:43:29;;;;;;;3.30;2.50;;;;;;;;;;5054557;28;20449;-47
2021/06/17 08:45:55;;;;;;;6.65;2.55;;;;;;;;;;5053366;28;20183;-46
2021/06/17 08:48:21;;;;;;;2.92;2.60;;;;;;;;;;5054737;28;20374;-46
2021/06/17 08:50:48;;;;;;;2.53;2.33;;;;;;;;;;5053619;28;20199;-46
2021/06/17 08:53:14;;;;;;;3.13;2.25;;;;;;;;;;5035906;28;20215;-46
2021/06/17 08:55:40;;;;;;;7.88;2.58;;;;;;;;;;5033502;28;20180;-46
2021/06/17 08:58:06;;;;;;;3.83;2.55;;;;;;;;;;5033757;28;20168;-46
2021/06/17 09:00:37;;;;;;;3.28;2.45;;;;;;;;;;5033793;28;20341;-46
2021/06/17 09:03:07;;;;;;;3.63;2.30;;;;;;;;;;5034408;28;20175;-46
2021/06/17 09:05:35;;;;;;;2.70;2.50;;;;;;;;;;5034167;28;20168;-46
2021/06/17 09:08:01;;;;;;;2.47;2.28;;;;;;;;;;5033627;28;20175;-47
2021/06/17 09:10:28;;;;;;;2.88;2.38;;;;;;;;;;5036052;28;20259;-46
2021/06/17 09:12:58;;;;;;;3.03;2.13;;;;;;;;;;5054662;28;20205;-46
2021/06/17 09:15:28;;;;;;;2.50;2.30;;;;;;;;;;5054833;28;20163;-46
2021/06/17 09:18:13;;;;;;;3.72;2.25;;;;;;;;;;5054136;28;20182;-46
2021/06/17 09:20:58;;;;;;;2.92;2.47;;;;;;;;;;5054225;28;20221;-46
2021/06/17 09:23:35;;;;;;;2.72;2.42;;;;;;;;;;5054501;28;20525;-46
2021/06/17 09:26:05;;;;;;;2.20;2.00;;;;;;;;;;5054008;28;20159;-46
2021/06/17 09:28:51;;;;;;;2.40;2.20;;;;;;;;;;5054097;28;20218;-47
2021/06/17 09:31:18;;;;;;;4.13;2.28;;;;;;;;;;5054268;28;20259;-46
2021/06/17 09:33:45;;;;;;;3.53;2.17;;;;;;;;;;5054397;28;20171;-46
2021/06/17 09:36:11;;;;;;;2.67;2.05;;;;;;;;;;5053582;28;20178;-46
2021/06/17 09:38:44;;;;;;;2.58;2.38;;;;;;;;;;5054217;28;20182;-47
2021/06/17 09:41:10;;;;;;;2.30;2.10;;;;;;;;;;5054407;28;20195;-47
2021/06/17 09:43:43;;;;;;;2.50;2.03;;;;;;;;;;5054553;28;20409;-47
2021/06/17 09:46:11;;;;;;;3.03;2.25;;;;;;;;;;5053866;28;20450;-46
2021/06/17 09:48:41;;;;;;;3.03;2.30;;;;;;;;;;5053866;28;20250;-46
2021/06/17 09:51:26;;;;;;;3.45;2.20;;;;;;;;;;5054091;28;20186;-47
2021/06/17 09:53:54;;;;;;;3.50;2.33;;;;;;;;;;5054439;28;20182;-46
2021/06/17 09:56:30;;;;;;;2.45;2.25;;;;;;;;;;5053764;28;20174;-46
2021/06/17 09:58:56;;;;;;;2.42;2.10;;;;;;;;;;5053797;28;20262;-46
2021/06/17 10:01:30;;;;;;;2.65;2.30;;;;;;;;;;5054138;28;20286;-46
2021/06/17 10:04:00;;;;;;;3.53;2.33;;;;;;;;;;5054033;28;20475;-46
2021/06/17 10:06:26;;;;;;;2.50;2.30;;;;;;;;;;5053818;28;20172;-46
2021/06/17 10:08:53;;;;;;;2.15;2.05;;;;;;;;;;5054188;28;20164;-46
2021/06/17 10:11:21;;;;;;;2.38;2.17;;;;;;;;;;5045508;28;20192;-46
2021/06/17 10:13:48;;;;;;;2.60;2.40;;;;;;;;;;5034213;28;20522;-46
2021/06/17 10:16:17;;;;;;;2.58;2.13;;;;;;;;;;5033777;28;20172;-47
2021/06/17 10:18:44;;;;;;;2.47;2.28;;;;;;;;;;5034067;28;20211;-46
2021/06/17 10:21:13;;;;;;;2.50;2.30;;;;;;;;;;5038099;28;20196;-46
2021/06/17 10:23:39;;;;;;;3.08;2.58;;;;;;;;;;5038300;28;20348;-46
2021/06/17 10:26:06;;;;;;;2.72;1.98;;;;;;;;;;5037115;28;20625;-47
2021/06/17 10:28:40;;;;;;;2.13;2.00;;;;;;;;;;5037754;28;20607;-46
2021/06/17 10:31:06;;;;;;;3.08;2.30;;;;;;;;;;5037781;28;20176;-46
2021/06/17 10:33:34;;;;;;;3.63;2.20;;;;;;;;;;5038070;28;20451;-46
2021/06/17 10:36:22;;;;;;;2.50;2.00;;;;;;;;;;5037053;28;20172;-46
2021/06/17 10:39:09;;;;;;;2.00;1.90;;;;;;;;;;5037321;28;20175;-46
2021/06/17 10:41:50;;;;;;;1.90;1.80;;;;;;;;;;5037411;28;20191;-46
2021/06/17 10:44:37;;;;;;;2.38;1.90;;;;;;;;;;5037469;28;20180;-48
2021/06/17 10:47:05;;;;;;;2.80;1.98;;;;;;;;;;5036720;28;20175;-47
2021/06/17 10:49:50;;;;;;;4.53;2.20;;;;;;;;;;5037310;28;20532;-47
2021/06/17 10:52:26;;;;;;;2.25;2.05;;;;;;;;;;5037285;28;20206;-46
2021/06/17 10:54:58;;;;;;;2.53;2.33;;;;;;;;;;5037469;28;20254;-47
2021/06/17 10:57:47;;;;;;;1.98;1.88;;;;;;;;;;5036533;28;20174;-47
2021/06/17 11:00:39;;;;;;;2.45;2.20;;;;;;;;;;5037163;28;20226;-46
2021/06/17 11:03:05;;;;;;;2.40;1.85;;;;;;;;;;5035016;28;20221;-46
2021/06/17 11:05:32;;;;;;;2.78;2.13;;;;;;;;;;5040073;28;20179;-47
2021/06/17 11:08:18;;;;;;;2.35;2.15;;;;;;;;;;5055448;28;20176;-46
2021/06/17 11:10:48;;;;;;;2.60;2.05;;;;;;;;;;5056420;28;20175;-46
2021/06/17 11:13:33;;;;;;;2.30;2.08;;;;;;;;;;5055431;28;20558;-46
2021/06/17 11:16:00;;;;;;;2.20;2.00;;;;;;;;;;5055330;28;20186;-46
2021/06/17 11:18:42;;;;;;;2.38;2.17;;;;;;;;;;5056512;28;20581;-47
2021/06/17 11:21:24;;;;;;;2.33;2.10;;;;;;;;;;5055890;28;20202;-47
2021/06/17 11:23:52;;;;;;;2.03;1.90;;;;;;;;;;5055921;28;20175;-46
2021/06/17 11:26:37;;;;;;;3.25;2.33;;;;;;;;;;5050713;28;20259;-47
2021/06/17 11:29:04;;;;;;;2.05;1.90;;;;;;;;;;5045597;28;20198;-47
2021/06/17 11:31:37;;;;;;;2.08;1.73;;;;;;;;;;5056544;28;20167;-46
2021/06/17 11:34:03;;;;;;;2.17;1.77;;;;;;;;;;5056495;28;20560;-46
2021/06/17 11:36:29;;;;;;;2.28;2.08;;;;;;;;;;5056270;28;20274;-46
2021/06/17 11:39:01;;;;;;;3.15;2.38;;;;;;;;;;5055997;28;20171;-46
2021/06/17 11:41:30;;;;;;;2.15;1.92;;;;;;;;;;5055808;28;20639;-47
2021/06/17 11:44:00;;;;;;;2.85;1.90;;;;;;;;;;5055754;28;20198;-46
2021/06/17 11:46:30;;;;;;;3.22;2.30;;;;;;;;;;5043189;28;20478;-46
2021/06/17 11:48:57;;;;;;;2.25;2.05;;;;;;;;;;5036300;28;20176;-46
2021/06/17 11:51:24;;;;;;;2.53;2.15;;;;;;;;;;5038819;28;20191;-46
2021/06/17 11:53:50;;;;;;;1.88;1.77;;;;;;;;;;5056084;28;21209;-46
2021/06/17 11:56:24;;;;;;;1.70;1.60;;;;;;;;;;5055147;28;20439;-46
2021/06/17 11:58:50;;;;;;;2.50;2.30;;;;;;;;;;5055462;28;20220;-46
2021/06/17 12:01:16;;;;;;;2.35;2.00;;;;;;;;;;5044526;28;20203;-46
2021/06/17 12:03:52;;;;;;;2.53;2.33;;;;;;;;;;5035811;28;20494;-47
2021/06/17 12:06:18;;;;;;;2.15;1.98;;;;;;;;;;5054172;28;20182;-46
2021/06/17 12:08:44;;;;;;;2.35;2.10;;;;;;;;;;5055824;28;20237;-47
2021/06/17 12:11:21;;;;;;;2.45;1.88;;;;;;;;;;5055476;28;20183;-47
2021/06/17 12:13:50;;;;;;;2.33;2.05;;;;;;;;;;5055190;28;20182;-47
2021/06/17 12:16:18;;;;;;;2.00;1.90;;;;;;;;;;5043813;28;20179;-47
2021/06/17 12:18:44;;;;;;;2.53;2.00;;;;;;;;;;5035339;28;20187;-46
2021/06/17 12:21:10;;;;;;;2.40;2.20;;;;;;;;;;5053533;28;20245;-47
2021/06/17 12:23:36;;;;;;;2.20;2.10;;;;;;;;;;5055273;28;20171;-46
2021/06/17 12:26:10;;;;;;;2.75;2.30;;;;;;;;;;5054787;28;20186;-46
2021/06/17 12:28:50;;;;;;;3.15;2.38;;;;;;;;;;5054842;28;20186;-46
2021/06/17 12:31:24;;;;;;;5.05;2.58;;;;;;;;;;5055222;28;20501;-47
2021/06/17 12:33:50;;;;;;;1.85;1.75;;;;;;;;;;5054770;28;20171;-46
2021/06/17 12:36:17;;;;;;;2.78;2.42;;;;;;;;;;5054919;28;20570;-46
2021/06/17 12:38:43;;;;;;;2.50;2.20;;;;;;;;;;5055315;28;20182;-46
2021/06/17 12:41:10;;;;;;;4.43;2.40;;;;;;;;;;5054789;28;20214;-46
2021/06/17 12:43:40;;;;;;;3.78;2.10;;;;;;;;;;5053876;28;20205;-47
2021/06/17 12:46:08;;;;;;;2.30;2.05;;;;;;;;;;5044889;28;20187;-46
2021/06/17 12:54:04;;;;;;;3.63;2.22;;;;;;;;;;5054657;28;20239;-46
2021/06/17 12:56:30;;;;;;;2.80;2.13;;;;;;;;;;5054464;28;20163;-47
2021/06/17 12:58:57;;;;;;;4.25;2.35;;;;;;;;;;5054723;28;20453;-46
2021/06/17 13:01:24;;;;;;;2.55;2.22;;;;;;;;;;5054633;28;20214;-46
2021/06/17 13:03:53;;;;;;;7.40;2.65;;;;;;;;;;5054822;28;20174;-47
2021/06/17 13:06:38;;;;;;;3.78;2.20;;;;;;;;;;5054011;28;20171;-46
2021/06/17 13:09:05;;;;;;;2.58;2.33;;;;;;;;;;5054921;28;20175;-46
2021/06/17 13:11:32;;;;;;;3.55;2.22;;;;;;;;;;5044509;28;20563;-46
2021/06/17 13:14:03;;;;;;;4.03;2.20;;;;;;;;;;5050018;28;20228;-47
2021/06/17 13:16:32;;;;;;;2.50;2.30;;;;;;;;;;5033658;28;20200;-46
2021/06/17 13:18:58;;;;;;;4.47;2.25;;;;;;;;;;5048906;28;20167;-47
2021/06/17 13:21:24;;;;;;;2.75;2.25;;;;;;;;;;5051610;28;20646;-47
2021/06/17 13:23:50;;;;;;;7.65;2.63;;;;;;;;;;5053907;28;20447;-47
2021/06/17 13:26:19;;;;;;;7.97;2.70;;;;;;;;;;5053912;28;20558;-47
2021/06/17 13:28:47;;;;;;;8.43;2.90;;;;;;;;;;5053526;28;20171;-46
2021/06/17 13:31:19;;;;;;;3.58;2.40;;;;;;;;;;5051007;28;20194;-47
2021/06/17 13:33:45;;;;;;;6.18;2.63;;;;;;;;;;5053766;28;20183;-47
2021/06/17 13:36:13;;;;;;;4.25;2.40;;;;;;;;;;5053579;28;20559;-46
2021/06/17 13:38:39;;;;;;;3.78;2.63;;;;;;;;;;5050421;28;20222;-47
2021/06/17 13:41:05;;;;;;;3.25;2.72;;;;;;;;;;5053684;28;20215;-46
2021/06/17 13:43:31;;;;;;;2.80;2.58;;;;;;;;;;5053611;28;20455;-47
2021/06/17 13:45:57;;;;;;;2.40;2.20;;;;;;;;;;5051243;28;20562;-47
2021/06/17 13:48:24;;;;;;;6.63;2.80;;;;;;;;;;5053994;28;20185;-46
2021/06/17 13:50:50;;;;;;;3.15;2.50;;;;;;;;;;5054266;28;20626;-47
2021/06/17 13:53:16;;;;;;;2.70;2.50;;;;;;;;;;5055542;28;20546;-46
2021/06/17 13:55:43;;;;;;;3.50;2.47;;;;;;;;;;5058138;28;20205;-47
2021/06/17 13:58:10;;;;;;;3.47;2.80;;;;;;;;;;5057315;28;20199;-47
2021/06/17 14:00:37;;;;;;;3.08;2.50;;;;;;;;;;5057611;28;20195;-46
2021/06/17 14:03:04;;;;;;;3.08;2.47;;;;;;;;;;5057904;28;20167;-47
2021/06/17 14:05:30;;;;;;;2.95;2.75;;;;;;;;;;5045107;28;20559;-47
2021/06/17 14:07:57;;;;;;;4.22;2.70;;;;;;;;;;5043132;28;20175;-46
2021/06/17 14:10:23;;;;;;;2.95;2.40;;;;;;;;;;5056906;28;20244;-46
2021/06/17 14:12:49;;;;;;;2.65;2.45;;;;;;;;;;5045440;28;20201;-47
2021/06/17 14:15:16;;;;;;;3.20;2.80;;;;;;;;;;5057238;28;20179;-46
2021/06/17 14:17:42;;;;;;;3.50;2.90;;;;;;;;;;5057526;28;20194;-46
2021/06/17 14:20:09;;;;;;;2.83;2.47;;;;;;;;;;5053824;28;20207;-47
2021/06/17 14:22:35;;;;;;;2.90;2.40;;;;;;;;;;5057831;28;20206;-47
2021/06/17 14:25:01;;;;;;;3.85;2.83;;;;;;;;;;5057756;28;20175;-46
2021/06/17 14:27:28;;;;;;;2.80;2.60;;;;;;;;;;5056975;28;20225;-46
2021/06/17 14:29:54;;;;;;;3.92;2.65;;;;;;;;;;5056782;28;20190;-47
2021/06/17 14:32:20;;;;;;;4.68;2.67;;;;;;;;;;5048636;28;20183;-47
2021/06/17 14:34:47;;;;;;;2.50;2.30;;;;;;;;;;5057679;28;20217;-46
2021/06/17 14:37:13;;;;;;;4.00;2.67;;;;;;;;;;5056740;28;20206;-47
2021/06/17 14:39:39;;;;;;;3.40;2.67;;;;;;;;;;5057585;28;20187;-47
2021/06/17 14:42:05;;;;;;;4.15;2.78;;;;;;;;;;5057087;28;20593;-46
2021/06/17 14:44:31;;;;;;;3.63;2.70;;;;;;;;;;5053985;28;20183;-47
2021/06/17 14:46:58;;;;;;;3.70;2.65;;;;;;;;;;5052947;28;20776;-47
2021/06/17 14:49:24;;;;;;;4.50;2.80;;;;;;;;;;5052852;28;20188;-47
2021/06/17 14:51:50;;;;;;;2.55;2.35;;;;;;;;;;5055246;28;20187;-47
2021/06/17 14:54:22;;;;;;;2.53;2.33;;;;;;;;;;5057931;28;20574;-47
2021/06/17 14:56:52;;;;;;;3.05;2.47;;;;;;;;;;5053273;28;20183;-47